Time;durP1;ratioP1;P1;durP2;ratioP2;P2;SDS_P1;SDS_P2;PMS_P1;PMS_P2;Temp;Humidity;BMP_temperature;BMP_pressure;BME280_temperature;BME280_humidity;BME280_pressure;Samples;Min_cycle;Max_cycle;Signal;HPM_P1;HPM_P2
2023/01/24 00:00:14;;;;;;;8.70;2.30;;;4.40;99.90;;;;;;5057001;28;20448;-58
2023/01/24 00:02:42;;;;;;;6.67;2.70;;;4.20;99.90;;;;;;5056714;28;20493;-58
2023/01/24 00:05:10;;;;;;;4.83;2.00;;;4.30;99.90;;;;;;5057157;28;20450;-58
2023/01/24 00:07:37;;;;;;;3.63;2.20;;;4.20;99.90;;;;;;5057442;28;20773;-58
2023/01/24 00:10:05;;;;;;;5.23;1.80;;;4.30;99.90;;;;;;5058157;28;20569;-58
2023/01/24 00:12:32;;;;;;;7.90;3.00;;;4.40;99.90;;;;;;5058376;28;20458;-58
2023/01/24 00:14:59;;;;;;;5.27;3.07;;;4.50;99.90;;;;;;5058821;28;20467;-58
2023/01/24 00:17:27;;;;;;;5.00;1.90;;;4.50;99.90;;;;;;5058389;28;20542;-58
2023/01/24 00:19:55;;;;;;;6.70;2.67;;;4.40;99.90;;;;;;5057324;28;20447;-59
2023/01/24 00:22:22;;;;;;;8.73;3.70;;;4.30;99.90;;;;;;5058047;28;20566;-59
2023/01/24 00:24:50;;;;;;;5.20;2.17;;;4.40;99.90;;;;;;5057220;28;20534;-58
2023/01/24 00:27:17;;;;;;;6.73;3.03;;;4.40;99.90;;;;;;5057506;28;20446;-58
2023/01/24 00:29:44;;;;;;;5.57;1.97;;;4.30;99.90;;;;;;5057626;28;20540;-58
2023/01/24 00:32:12;;;;;;;5.40;3.40;;;4.20;99.90;;;;;;5056973;28;20742;-58
2023/01/24 00:41:24;;;;;;;6.50;1.90;;;4.30;99.90;;;;;;5057352;28;20450;-58
2023/01/24 00:43:51;;;;;;;6.43;2.33;;;4.40;99.90;;;;;;5057854;28;20487;-57
2023/01/24 00:46:18;;;;;;;5.53;2.27;;;4.30;99.90;;;;;;5058001;28;20455;-58
2023/01/24 00:48:45;;;;;;;3.43;1.70;;;4.30;99.90;;;;;;5058879;28;20469;-57
2023/01/24 00:51:12;;;;;;;4.47;2.53;;;4.30;99.90;;;;;;5078057;28;20433;-58
2023/01/24 00:53:40;;;;;;;5.50;2.60;;;4.30;99.90;;;;;;5077326;28;20896;-58
2023/01/24 00:56:08;;;;;;;7.33;3.50;;;4.40;99.90;;;;;;5076820;28;20489;-59
2023/01/24 00:58:37;;;;;;;5.50;2.10;;;4.50;99.90;;;;;;5074411;28;20458;-58
2023/01/24 01:01:04;;;;;;;6.07;2.10;;;4.40;99.90;;;;;;5077800;28;20776;-58
2023/01/24 01:03:32;;;;;;;5.83;1.77;;;4.40;99.90;;;;;;5076698;28;20485;-58
2023/01/24 01:06:00;;;;;;;4.60;1.90;;;4.40;99.90;;;;;;5077170;28;20460;-58
2023/01/24 01:08:28;;;;;;;4.40;2.07;;;4.40;99.90;;;;;;5073277;28;20462;-58
2023/01/24 01:10:55;;;;;;;4.73;2.53;;;4.40;99.90;;;;;;5076884;28;20751;-58
2023/01/24 01:13:22;;;;;;;6.20;2.50;;;4.20;99.90;;;;;;5077185;28;20536;-57
2023/01/24 01:15:50;;;;;;;5.27;2.53;;;4.20;99.90;;;;;;5074295;28;20470;-58
2023/01/24 01:18:18;;;;;;;4.53;2.13;;;4.30;99.90;;;;;;5076213;28;20765;-58
2023/01/24 01:20:50;;;;;;;6.40;2.47;;;4.40;99.90;;;;;;5077268;28;20454;-58
2023/01/24 01:23:17;;;;;;;3.43;1.77;;;4.50;99.90;;;;;;5076734;28;20486;-58
2023/01/24 01:25:45;;;;;;;7.87;3.17;;;4.50;99.90;;;;;;5074572;28;20467;-57
2023/01/24 01:28:12;;;;;;;6.27;1.77;;;4.50;99.90;;;;;;5076531;28;20453;-59
2023/01/24 01:30:39;;;;;;;6.13;3.03;;;4.50;99.90;;;;;;5064725;28;20749;-58
2023/01/24 01:33:07;;;;;;;5.60;2.47;;;4.60;99.90;;;;;;5060903;28;20754;-58
2023/01/24 01:35:35;;;;;;;4.33;2.13;;;4.80;99.90;;;;;;5071031;28;20466;-58
2023/01/24 01:38:02;;;;;;;5.20;2.70;;;4.80;99.90;;;;;;5076592;28;20537;-58
2023/01/24 01:40:29;;;;;;;4.60;2.47;;;4.70;99.90;;;;;;5076792;28;20459;-58
2023/01/24 01:42:57;;;;;;;5.27;2.57;;;4.60;99.90;;;;;;5075928;28;20498;-59
2023/01/24 01:45:39;;;;;;;5.90;1.90;;;4.50;99.90;;;;;;5076432;28;20886;-58
2023/01/24 01:48:22;;;;;;;4.13;2.40;;;4.40;99.90;;;;;;5076038;28;20421;-58
2023/01/24 01:50:54;;;;;;;4.70;2.40;;;4.40;99.90;;;;;;5076450;28;20462;-58
2023/01/24 01:53:23;;;;;;;8.30;2.67;;;4.50;99.90;;;;;;5076297;28;20481;-58
2023/01/24 01:55:56;;;;;;;7.43;2.87;;;4.40;99.90;;;;;;5076094;28;20520;-59
2023/01/24 01:58:23;;;;;;;4.33;1.80;;;4.30;99.90;;;;;;5076133;28;20450;-59
2023/01/24 02:00:50;;;;;;;5.77;2.60;;;4.10;99.90;;;;;;5074432;28;20773;-58
2023/01/24 02:03:40;;;;;;;3.50;2.03;;;4.00;99.90;;;;;;5072042;28;20486;-60
2023/01/24 02:06:16;;;;;;;3.83;1.73;;;4.00;99.90;;;;;;5057778;28;20717;-58
2023/01/24 02:08:45;;;;;;;5.80;2.23;;;4.10;99.90;;;;;;5056156;28;20457;-58
2023/01/24 02:16:45;;;;;;;7.57;2.63;;;4.10;99.90;;;;;;5055940;28;20515;-59
2023/01/24 02:19:23;;;;;;;7.10;2.23;;;4.40;99.90;;;;;;5056426;28;20965;-58
2023/01/24 02:21:57;;;;;;;5.57;2.50;;;4.30;99.90;;;;;;5076214;28;20461;-58
2023/01/24 02:24:29;;;;;;;4.93;2.50;;;4.30;99.90;;;;;;5075751;28;20479;-58
2023/01/24 02:26:58;;;;;;;5.33;2.27;;;4.30;99.90;;;;;;5076326;28;20456;-58
2023/01/24 02:29:25;;;;;;;8.47;3.50;;;4.30;99.90;;;;;;5059952;28;20456;-57
2023/01/24 02:31:57;;;;;;;7.40;2.07;;;4.30;99.90;;;;;;5075362;28;20956;-58
2023/01/24 02:34:26;;;;;;;4.47;2.03;;;4.40;99.90;;;;;;5061734;28;20447;-58
2023/01/24 02:36:56;;;;;;;6.20;2.70;;;4.60;99.90;;;;;;5064999;28;20433;-58
2023/01/24 02:39:27;;;;;;;7.20;3.53;;;4.40;99.90;;;;;;5073612;28;20442;-59
2023/01/24 02:42:00;;;;;;;4.20;1.73;;;4.30;99.90;;;;;;5054919;28;20455;-57
2023/01/24 02:44:33;;;;;;;6.80;2.47;;;4.30;99.90;;;;;;5054559;28;20515;-58
2023/01/24 02:47:00;;;;;;;4.43;2.03;;;4.30;99.90;;;;;;5054819;28;20451;-58
2023/01/24 02:49:27;;;;;;;8.00;2.70;;;4.30;99.90;;;;;;5054634;28;20530;-57
2023/01/24 02:54:40;;;;;;;4.20;2.20;;;4.20;99.90;;;;;;5055354;28;20735;-58
2023/01/24 02:59:53;;;;;;;3.90;2.03;;;4.10;99.90;;;;;;5055711;28;20794;-58
2023/01/24 03:02:20;;;;;;;4.93;2.43;;;4.20;99.90;;;;;;5055594;28;20428;-58
2023/01/24 03:04:47;;;;;;;3.87;1.40;;;4.20;99.90;;;;;;5056242;28;20483;-58
2023/01/24 03:07:14;;;;;;;6.80;2.40;;;4.20;99.90;;;;;;5055914;28;20913;-58
2023/01/24 03:09:47;;;;;;;5.37;1.77;;;4.30;99.90;;;;;;5055025;28;20482;-59
2023/01/24 03:34:33;;;;;;;6.93;2.57;;;4.60;99.90;;;;;;5054658;28;20407;-58
2023/01/24 03:37:01;;;;;;;6.53;2.73;;;4.60;99.90;;;;;;5055653;28;20474;-58
2023/01/24 03:42:13;;;;;;;5.33;3.00;;;4.40;99.90;;;;;;5055401;28;20427;-58
2023/01/24 03:44:41;;;;;;;4.57;1.93;;;4.30;99.90;;;;;;5055330;28;20490;-58
2023/01/24 03:47:08;;;;;;;5.83;2.67;;;4.40;99.90;;;;;;5058963;28;20745;-58
2023/01/24 03:52:27;;;;;;;5.33;2.03;;;4.30;99.90;;;;;;5058570;28;20434;-58
2023/01/24 03:54:54;;;;;;;3.70;1.77;;;4.50;99.90;;;;;;5064784;28;20977;-58
2023/01/24 03:57:22;;;;;;;5.23;3.23;;;4.70;99.90;;;;;;5058703;28;20542;-58
2023/01/24 03:59:51;;;;;;;4.37;1.70;;;4.60;99.90;;;;;;5058681;28;20453;-58
2023/01/24 04:02:18;;;;;;;6.40;3.17;;;4.60;99.90;;;;;;5072149;28;20459;-58
2023/01/24 04:07:31;;;;;;;7.70;2.00;;;4.40;99.90;;;;;;5058303;28;20556;-58
2023/01/24 04:09:58;;;;;;;6.20;2.23;;;4.10;99.90;;;;;;5058475;28;20471;-59
2023/01/24 04:12:26;;;;;;;6.50;2.27;;;3.90;99.90;;;;;;5058531;28;20447;-58
2023/01/24 04:14:54;;;;;;;3.57;2.60;;;3.90;99.90;;;;;;5058354;28;20447;-58
2023/01/24 04:17:22;;;;;;;8.47;2.80;;;4.20;99.90;;;;;;5057645;28;20562;-58
2023/01/24 04:19:49;;;;;;;5.33;2.37;;;4.20;99.90;;;;;;5058349;28;20512;-58
2023/01/24 04:22:17;;;;;;;6.77;2.63;;;4.20;99.90;;;;;;5057148;28;20426;-58
2023/01/24 04:24:45;;;;;;;4.27;2.00;;;4.30;99.90;;;;;;5057496;28;20482;-58
2023/01/24 04:27:13;;;;;;;5.23;2.20;;;4.50;99.90;;;;;;5057887;28;20815;-58
2023/01/24 04:29:40;;;;;;;6.13;3.00;;;4.40;99.90;;;;;;5058440;28;20762;-59
2023/01/24 04:32:09;;;;;;;3.57;1.50;;;4.20;99.90;;;;;;5059293;28;20822;-58
2023/01/24 04:34:36;;;;;;;9.10;3.73;;;4.20;99.90;;;;;;5076619;28;20453;-57
2023/01/24 04:37:03;;;;;;;3.73;2.03;;;4.30;99.90;;;;;;5057976;28;20835;-58
2023/01/24 04:39:30;;;;;;;5.30;2.03;;;4.20;99.90;;;;;;5067697;28;20575;-58
2023/01/24 04:41:57;;;;;;;9.53;2.90;;;4.10;99.90;;;;;;5077216;28;20773;-58
2023/01/24 04:44:25;;;;;;;3.43;1.93;;;4.00;99.90;;;;;;5077764;28;21027;-57
2023/01/24 04:46:52;;;;;;;8.00;2.90;;;4.10;99.90;;;;;;5077878;28;20752;-57
2023/01/24 04:49:20;;;;;;;8.63;2.30;;;4.30;99.90;;;;;;5077266;28;20878;-57
2023/01/24 04:51:48;;;;;;;7.27;4.10;;;4.30;99.90;;;;;;5059157;28;20757;-57
2023/01/24 04:54:15;;;;;;;8.80;2.97;;;4.30;99.90;;;;;;5057196;28;20528;-57
2023/01/24 04:56:43;;;;;;;7.77;3.73;;;4.20;99.90;;;;;;5057245;28;20828;-55
2023/01/24 04:59:12;;;;;;;8.57;2.43;;;4.30;99.90;;;;;;5057541;28;20487;-52
2023/01/24 05:01:39;;;;;;;5.40;2.83;;;4.30;99.90;;;;;;5057770;28;20461;-57
2023/01/24 05:04:07;;;;;;;6.23;1.80;;;4.30;99.90;;;;;;5056461;28;20578;-58
2023/01/24 05:06:35;;;;;;;5.93;2.47;;;4.40;99.90;;;;;;5057840;28;20905;-58
2023/01/24 05:09:03;;;;;;;7.20;2.87;;;4.40;99.90;;;;;;5057439;28;20447;-56
2023/01/24 05:11:31;;;;;;;7.30;2.63;;;4.40;99.90;;;;;;5057781;28;20528;-56
2023/01/24 05:13:58;;;;;;;2.90;1.67;;;4.50;99.90;;;;;;5057323;28;20447;-57
2023/01/24 05:16:25;;;;;;;8.73;2.73;;;4.40;99.90;;;;;;5057434;28;20455;-57
2023/01/24 05:18:52;;;;;;;5.97;2.27;;;4.20;99.90;;;;;;5056962;28;20799;-55
2023/01/24 05:21:20;;;;;;;4.93;1.93;;;4.00;99.90;;;;;;5059547;28;20858;-56
2023/01/24 05:23:52;;;;;;;7.60;2.60;;;4.10;99.90;;;;;;5064410;28;20430;-57
2023/01/24 05:26:19;;;;;;;6.10;1.80;;;4.10;99.90;;;;;;5054909;28;20483;-58
2023/01/24 05:28:46;;;;;;;6.27;2.30;;;4.10;99.90;;;;;;5056749;28;20443;-58
2023/01/24 05:31:13;;;;;;;8.83;3.53;;;4.00;99.90;;;;;;5057087;28;20444;-54
2023/01/24 05:33:41;;;;;;;7.27;2.90;;;3.90;99.90;;;;;;5056751;28;20441;-58
2023/01/24 05:36:11;;;;;;;5.10;2.40;;;3.90;99.90;;;;;;5056745;28;20434;-56
2023/01/24 05:38:38;;;;;;;7.63;3.87;;;3.80;99.90;;;;;;5056303;28;20447;-58
2023/01/24 05:41:09;;;;;;;5.90;2.27;;;3.80;99.90;;;;;;5056018;28;20554;-59
2023/01/24 05:43:36;;;;;;;6.77;2.87;;;3.90;99.90;;;;;;5056659;28;20743;-58
2023/01/24 05:46:05;;;;;;;5.87;1.57;;;3.80;99.90;;;;;;5056329;28;21006;-57
2023/01/24 05:48:32;;;;;;;9.97;3.87;;;3.90;99.90;;;;;;5054093;28;20458;-58
2023/01/24 05:51:00;;;;;;;10.20;3.07;;;4.10;99.90;;;;;;5054670;28;20761;-60
2023/01/24 05:53:28;;;;;;;7.03;2.73;;;4.20;99.90;;;;;;5056065;28;20750;-58
2023/01/24 05:55:57;;;;;;;8.63;3.57;;;4.10;99.90;;;;;;5055179;28;20723;-56
2023/01/24 05:58:26;;;;;;;8.27;3.97;;;4.00;99.90;;;;;;5055424;28;20422;-58
2023/01/24 06:00:53;;;;;;;8.30;3.13;;;4.10;99.90;;;;;;5054133;28;20461;-58
2023/01/24 06:03:21;;;;;;;8.30;2.60;;;3.90;99.90;;;;;;5056329;28;20742;-57
2023/01/24 06:05:50;;;;;;;6.40;3.10;;;3.90;99.90;;;;;;5054756;28;20768;-58
2023/01/24 06:08:17;;;;;;;5.77;3.07;;;4.00;99.90;;;;;;5053725;28;20889;-58
2023/01/24 06:10:44;;;;;;;4.70;2.07;;;4.20;99.90;;;;;;5054229;28;20924;-56
2023/01/24 06:13:12;;;;;;;7.57;3.07;;;4.10;99.90;;;;;;5053671;28;20910;-55
2023/01/24 06:15:41;;;;;;;11.33;4.93;;;4.00;99.90;;;;;;5051730;28;20455;-54
2023/01/24 06:18:15;;;;;;;5.70;2.30;;;4.00;99.90;;;;;;5052716;28;20538;-54
2023/01/24 06:20:42;;;;;;;4.43;2.33;;;3.90;99.90;;;;;;5053934;28;20462;-54
2023/01/24 06:23:23;;;;;;;7.43;3.10;;;4.10;99.90;;;;;;5053013;28;20414;-56
2023/01/24 06:25:51;;;;;;;6.97;2.90;;;4.30;99.90;;;;;;5054248;28;20458;-55
2023/01/24 06:28:19;;;;;;;11.60;3.03;;;4.30;99.90;;;;;;5054010;28;20454;-52
2023/01/24 06:30:55;;;;;;;7.87;3.10;;;4.30;99.90;;;;;;5072427;28;20468;-56
2023/01/24 06:33:33;;;;;;;6.00;2.23;;;4.40;99.90;;;;;;5072807;28;20549;-56
2023/01/24 06:36:17;;;;;;;8.40;4.03;;;4.40;99.90;;;;;;5072556;28;20431;-54
2023/01/24 06:38:44;;;;;;;9.57;3.27;;;4.10;99.90;;;;;;5073477;28;20549;-54
2023/01/24 06:41:16;;;;;;;7.80;3.07;;;4.10;99.90;;;;;;5073531;28;20507;-55
2023/01/24 06:43:44;;;;;;;6.93;3.13;;;4.20;99.90;;;;;;5072621;28;20447;-56
2023/01/24 06:46:14;;;;;;;7.53;3.10;;;4.30;99.90;;;;;;5068506;28;22849;-56
2023/01/24 06:48:44;;;;;;;6.17;2.70;;;4.50;99.90;;;;;;5072180;28;20450;-55
2023/01/24 06:51:13;;;;;;;11.37;4.10;;;4.50;99.90;;;;;;5071935;28;20799;-56
2023/01/24 06:53:40;;;;;;;11.77;4.20;;;4.40;99.90;;;;;;5071536;28;20446;-56
2023/01/24 06:56:08;;;;;;;10.40;3.53;;;4.30;99.90;;;;;;5073414;28;20468;-51
2023/01/24 06:58:36;;;;;;;6.43;3.63;;;4.40;99.90;;;;;;5073237;28;20814;-55
2023/01/24 07:01:03;;;;;;;5.53;2.27;;;4.60;99.90;;;;;;5072393;28;20454;-54
2023/01/24 07:03:32;;;;;;;6.90;2.30;;;4.70;99.90;;;;;;5070617;28;20924;-52
2023/01/24 07:05:59;;;;;;;10.33;3.33;;;4.90;99.90;;;;;;5073131;28;20488;-56
2023/01/24 07:08:26;;;;;;;6.63;2.90;;;5.00;99.90;;;;;;5074232;28;20881;-55
2023/01/24 07:10:54;;;;;;;13.97;3.90;;;4.90;99.90;;;;;;5073167;28;20459;-56
2023/01/24 07:13:21;;;;;;;6.40;2.80;;;4.80;99.90;;;;;;5071921;28;20999;-57
2023/01/24 07:15:48;;;;;;;7.00;2.53;;;4.90;99.90;;;;;;5072596;28;20995;-56
2023/01/24 07:18:17;;;;;;;10.40;3.63;;;4.90;99.90;;;;;;5071880;28;20438;-57
2023/01/24 07:20:47;;;;;;;8.33;2.70;;;4.50;99.90;;;;;;5072935;28;20446;-55
2023/01/24 07:23:21;;;;;;;9.13;3.50;;;4.10;99.90;;;;;;5074776;28;20449;-55
2023/01/24 07:25:49;;;;;;;10.15;5.50;;;4.30;99.90;;;;;;5073524;28;20454;-56
2023/01/24 07:28:17;;;;;;;9.83;3.20;;;4.00;99.90;;;;;;5077912;28;20498;-54
2023/01/24 07:30:45;;;;;;;7.77;3.80;;;3.80;99.90;;;;;;5075129;28;20971;-55
2023/01/24 07:33:13;;;;;;;10.73;4.40;;;3.70;99.90;;;;;;5075695;28;20450;-55
2023/01/24 07:35:41;;;;;;;9.90;3.20;;;3.90;99.90;;;;;;5076602;28;20928;-55
2023/01/24 07:38:11;;;;;;;6.50;1.93;;;3.90;99.90;;;;;;5072024;28;20734;-54
2023/01/24 07:40:39;;;;;;;7.50;3.13;;;3.90;99.90;;;;;;5073700;28;20948;-54
2023/01/24 07:43:06;;;;;;;6.33;3.43;;;4.00;99.90;;;;;;5074477;28;20478;-55
2023/01/24 07:45:37;;;;;;;9.50;3.20;;;4.00;99.90;;;;;;5073220;28;20815;-54
2023/01/24 07:48:07;;;;;;;6.90;3.37;;;4.10;99.90;;;;;;5075746;28;20505;-54
2023/01/24 07:50:34;;;;;;;6.27;3.37;;;4.10;99.90;;;;;;5075809;28;20909;-55
2023/01/24 07:53:02;;;;;;;8.43;2.90;;;4.30;99.90;;;;;;5074146;28;20446;-56
2023/01/24 07:55:30;;;;;;;6.50;3.13;;;4.40;99.90;;;;;;5075053;28;20529;-55
2023/01/24 07:58:02;;;;;;;10.80;4.20;;;4.60;99.90;;;;;;5075958;28;20476;-56
2023/01/24 08:00:30;;;;;;;9.30;3.57;;;4.40;99.90;;;;;;5073281;28;20726;-55
2023/01/24 08:02:57;;;;;;;9.48;4.80;;;4.40;99.90;;;;;;5073746;28;20446;-58
2023/01/24 08:05:24;;;;;;;6.83;2.90;;;4.40;99.90;;;;;;5075778;28;20554;-57
2023/01/24 08:07:51;;;;;;;7.93;4.30;;;4.50;99.90;;;;;;5073793;28;20448;-57
2023/01/24 08:10:21;;;;;;;6.40;3.63;;;4.60;99.90;;;;;;5071331;28;20787;-57
2023/01/24 08:12:50;;;;;;;8.23;2.27;;;4.60;99.90;;;;;;5074307;28;20450;-58
2023/01/24 08:15:17;;;;;;;7.03;3.57;;;4.60;99.90;;;;;;5074074;28;20454;-58
2023/01/24 08:17:44;;;;;;;5.80;3.10;;;4.70;99.90;;;;;;5074670;28;20447;-57
2023/01/24 08:20:12;;;;;;;10.10;3.20;;;4.60;99.90;;;;;;5054908;28;20482;-58
2023/01/24 08:22:39;;;;;;;6.90;2.13;;;4.70;99.90;;;;;;5052618;28;20435;-58
2023/01/24 08:25:08;;;;;;;11.83;3.87;;;4.70;99.90;;;;;;5055489;28;20485;-58
2023/01/24 08:27:35;;;;;;;5.57;2.70;;;4.70;99.90;;;;;;5054761;28;20453;-57
2023/01/24 08:30:04;;;;;;;6.30;2.70;;;4.90;99.90;;;;;;5054616;28;20863;-55
2023/01/24 08:32:33;;;;;;;7.53;2.93;;;5.10;99.90;;;;;;5053450;28;20451;-57
2023/01/24 08:35:00;;;;;;;8.00;3.73;;;5.00;99.90;;;;;;5054648;28;20767;-58
2023/01/24 08:37:27;;;;;;;6.10;3.27;;;4.80;99.90;;;;;;5053115;28;20871;-58
2023/01/24 08:39:56;;;;;;;7.67;2.80;;;4.60;99.90;;;;;;5053474;28;20893;-57
2023/01/24 08:42:24;;;;;;;8.30;3.30;;;4.70;99.90;;;;;;5055050;28;20939;-57
2023/01/24 08:44:51;;;;;;;7.53;3.40;;;4.60;99.90;;;;;;5055441;28;20466;-58
2023/01/24 08:47:19;;;;;;;8.80;2.70;;;4.30;99.90;;;;;;5054064;28;20447;-58
2023/01/24 08:49:47;;;;;;;7.40;2.33;;;4.30;99.90;;;;;;5053346;28;20451;-58
2023/01/24 08:52:14;;;;;;;7.80;2.30;;;4.50;99.90;;;;;;5053512;28;20893;-58
2023/01/24 08:54:41;;;;;;;5.00;2.90;;;4.60;99.90;;;;;;5054989;28;20450;-57
2023/01/24 08:57:08;;;;;;;7.63;2.00;;;5.00;99.90;;;;;;5053655;28;20465;-56
2023/01/24 08:59:35;;;;;;;9.03;3.83;;;4.90;99.90;;;;;;5055819;28;20655;-57
2023/01/24 09:02:02;;;;;;;6.90;3.37;;;5.10;99.90;;;;;;5054108;28;20459;-58
2023/01/24 09:04:31;;;;;;;7.13;2.10;;;5.30;99.90;;;;;;5052685;28;20446;-56
2023/01/24 09:06:58;;;;;;;6.77;1.80;;;5.50;99.90;;;;;;5052304;28;20487;-58
2023/01/24 09:09:25;;;;;;;7.70;2.90;;;5.50;99.90;;;;;;5052923;28;20475;-55
2023/01/24 09:11:53;;;;;;;8.20;3.97;;;5.60;99.90;;;;;;5050616;28;20546;-57
2023/01/24 09:14:20;;;;;;;7.73;2.37;;;5.60;99.90;;;;;;5051020;28;20474;-58
2023/01/24 09:16:47;;;;;;;4.90;2.83;;;5.60;99.90;;;;;;5053342;28;20889;-58
2023/01/24 09:19:14;;;;;;;10.27;3.37;;;5.50;99.90;;;;;;5052256;28;20755;-58
2023/01/24 09:21:44;;;;;;;7.53;3.13;;;5.60;99.90;;;;;;5053464;28;20456;-55
2023/01/24 09:24:11;;;;;;;8.53;3.30;;;5.70;99.90;;;;;;5052421;28;20766;-56
2023/01/24 09:26:39;;;;;;;7.63;2.90;;;5.60;99.90;;;;;;5053627;28;20782;-57
2023/01/24 09:29:06;;;;;;;7.23;2.27;;;5.70;99.90;;;;;;5055297;28;20450;-56
2023/01/24 09:31:33;;;;;;;9.33;2.47;;;5.60;99.90;;;;;;5056908;28;20947;-57
2023/01/24 09:34:00;;;;;;;12.07;6.30;;;5.40;99.90;;;;;;5070991;28;20469;-58
2023/01/24 09:36:29;;;;;;;9.53;3.90;;;4.90;99.90;;;;;;5058474;28;20462;-56
2023/01/24 09:38:58;;;;;;;7.60;2.90;;;4.90;99.90;;;;;;5052868;28;20827;-57
2023/01/24 09:41:38;;;;;;;9.83;3.07;;;4.60;99.90;;;;;;5053645;28;20754;-57
2023/01/24 09:44:16;;;;;;;4.30;2.40;;;4.70;99.90;;;;;;5053570;28;20728;-56
2023/01/24 09:46:47;;;;;;;9.17;3.50;;;5.10;99.90;;;;;;5051826;28;20965;-57
2023/01/24 09:49:20;;;;;;;10.30;3.83;;;5.00;99.90;;;;;;5054372;28;20453;-57
2023/01/24 09:51:51;;;;;;;6.83;3.60;;;4.80;99.90;;;;;;5052211;28;20806;-57
2023/01/24 09:54:30;;;;;;;6.13;2.30;;;4.50;99.90;;;;;;5051759;28;20448;-54
2023/01/24 09:56:57;;;;;;;6.17;3.07;;;4.60;99.90;;;;;;5052582;28;20425;-56
2023/01/24 09:59:33;;;;;;;6.40;2.33;;;4.50;99.90;;;;;;5051731;28;20444;-57
2023/01/24 10:02:00;;;;;;;8.70;2.57;;;4.40;99.90;;;;;;5052166;28;20434;-57
2023/01/24 10:04:35;;;;;;;8.87;3.17;;;4.30;99.90;;;;;;5052752;28;20637;-56
2023/01/24 10:07:37;;;;;;;6.50;3.07;;;4.30;99.90;;;;;;5053146;28;20598;-58
2023/01/24 10:10:19;;;;;;;8.57;2.17;;;4.40;99.90;;;;;;5052314;28;20751;-55
2023/01/24 10:12:54;;;;;;;4.33;2.13;;;4.50;99.90;;;;;;5051038;28;20449;-55
2023/01/24 10:15:37;;;;;;;5.03;1.70;;;4.40;99.90;;;;;;5049810;28;20731;-56
2023/01/24 10:18:21;;;;;;;5.50;2.37;;;4.60;99.90;;;;;;5052042;28;20489;-56
2023/01/24 10:21:01;;;;;;;8.30;2.07;;;4.80;99.90;;;;;;5051894;28;20895;-58
2023/01/24 10:23:32;;;;;;;6.43;3.60;;;5.20;99.90;;;;;;5052225;28;20439;-58
2023/01/24 10:26:06;;;;;;;4.27;1.80;;;5.10;99.90;;;;;;5050337;28;20846;-58
2023/01/24 10:28:37;;;;;;;6.30;1.77;;;5.40;99.90;;;;;;5050964;28;20513;-58
2023/01/24 10:31:09;;;;;;;3.67;1.50;;;5.60;99.90;;;;;;5053175;28;20799;-58
2023/01/24 10:33:43;;;;;;;7.20;2.60;;;5.80;99.90;;;;;;5052664;28;20875;-57
2023/01/24 10:36:15;;;;;;;4.33;2.43;;;5.90;99.90;;;;;;5051327;28;20743;-58
2023/01/24 10:38:43;;;;;;;6.20;1.80;;;5.80;99.90;;;;;;5052483;28;20444;-57
2023/01/24 10:41:20;;;;;;;3.60;1.80;;;6.00;99.90;;;;;;5052634;28;20517;-59
2023/01/24 10:43:51;;;;;;;4.37;1.50;;;5.60;99.90;;;;;;5052024;28;20462;-59
2023/01/24 10:46:45;;;;;;;3.67;1.20;;;5.20;99.90;;;;;;5050954;28;20581;-59
2023/01/24 10:49:19;;;;;;;5.20;1.53;;;5.40;99.90;;;;;;5052541;28;20960;-60
2023/01/24 10:52:11;;;;;;;4.33;1.20;;;5.20;99.90;;;;;;5050719;28;20474;-60
2023/01/24 10:54:47;;;;;;;4.97;2.50;;;5.20;99.90;;;;;;5050550;28;20450;-58
2023/01/24 10:57:39;;;;;;;4.70;2.13;;;5.10;99.90;;;;;;5056363;28;20188;-58
2023/01/24 11:00:19;;;;;;;4.07;1.37;;;5.10;99.90;;;;;;5054295;28;20875;-59
2023/01/24 11:02:50;;;;;;;2.80;1.63;;;5.10;99.90;;;;;;5053473;28;20548;-58
2023/01/24 11:05:19;;;;;;;2.73;1.40;;;5.30;99.90;;;;;;5053581;28;20450;-59
2023/01/24 11:07:48;;;;;;;5.10;1.60;;;5.30;99.90;;;;;;5053674;28;20474;-58
2023/01/24 11:10:21;;;;;;;3.37;1.60;;;5.30;99.90;;;;;;5053368;28;20867;-59
2023/01/24 11:12:52;;;;;;;3.07;1.60;;;5.60;99.90;;;;;;5054830;28;20474;-58
2023/01/24 11:15:24;;;;;;;3.10;1.40;;;5.50;99.90;;;;;;5056592;28;20541;-58
2023/01/24 11:17:57;;;;;;;3.90;1.70;;;5.60;99.90;;;;;;5056228;28;20454;-59
2023/01/24 11:20:35;;;;;;;4.37;1.93;;;5.50;99.90;;;;;;5055576;28;20450;-59
2023/01/24 11:23:04;;;;;;;3.93;1.90;;;5.40;99.90;;;;;;5053015;28;20597;-59
2023/01/24 11:25:32;;;;;;;4.10;1.83;;;5.20;99.90;;;;;;5055418;28;20473;-58
2023/01/24 11:28:00;;;;;;;5.40;1.83;;;5.20;99.90;;;;;;5056848;28;20454;-58
2023/01/24 11:30:34;;;;;;;3.20;1.40;;;5.10;99.90;;;;;;5056614;28;20813;-58
2023/01/24 11:33:34;;;;;;;5.93;1.97;;;5.10;99.90;;;;;;5055018;28;20443;-58
2023/01/24 11:36:06;;;;;;;5.90;2.20;;;5.20;99.90;;;;;;5055004;28;20641;-59
2023/01/24 11:38:37;;;;;;;4.47;1.60;;;5.40;99.90;;;;;;5054817;28;20761;-58
2023/01/24 11:41:11;;;;;;;4.50;1.67;;;5.40;99.90;;;;;;5056047;28;20817;-58
2023/01/24 11:44:00;;;;;;;8.70;3.17;;;5.70;99.90;;;;;;5055648;28;20728;-58
2023/01/24 11:46:46;;;;;;;4.00;1.47;;;5.60;99.90;;;;;;5053156;28;20483;-58
2023/01/24 11:49:33;;;;;;;4.60;2.00;;;5.60;99.90;;;;;;5054711;28;20751;-58
2023/01/24 11:52:08;;;;;;;2.73;1.40;;;5.60;99.90;;;;;;5054763;28;20547;-58
2023/01/24 11:54:45;;;;;;;6.33;1.63;;;5.40;99.90;;;;;;5055878;28;20893;-59
2023/01/24 11:57:26;;;;;;;5.40;1.80;;;5.20;99.90;;;;;;5053056;28;20462;-59
2023/01/24 12:00:06;;;;;;;4.43;2.80;;;5.10;99.90;;;;;;5052949;28;20474;-59
2023/01/24 12:03:00;;;;;;;5.77;1.63;;;5.20;99.90;;;;;;5053607;28;20814;-59
2023/01/24 12:05:41;;;;;;;3.83;2.03;;;5.00;99.90;;;;;;5052948;28;20770;-59
2023/01/24 12:08:24;;;;;;;5.10;1.83;;;5.00;99.90;;;;;;5064013;28;20525;-58
2023/01/24 12:11:02;;;;;;;3.93;1.50;;;5.20;99.90;;;;;;5075986;28;20760;-57
2023/01/24 12:13:37;;;;;;;6.23;2.80;;;5.20;99.90;;;;;;5070288;28;20466;-58
2023/01/24 12:16:19;;;;;;;4.10;1.80;;;5.20;99.90;;;;;;5065520;28;20873;-59
2023/01/24 12:19:16;;;;;;;2.83;1.47;;;5.10;99.90;;;;;;5055587;28;20468;-58
2023/01/24 12:21:45;;;;;;;2.87;1.90;;;5.10;99.90;;;;;;5059300;28;20782;-59
2023/01/24 12:24:19;;;;;;;4.37;2.70;;;5.20;99.90;;;;;;5073742;28;20845;-64
2023/01/24 12:26:51;;;;;;;5.17;1.37;;;5.30;99.90;;;;;;5071580;28;20804;-59
2023/01/24 12:29:24;;;;;;;3.70;1.43;;;5.10;99.90;;;;;;5073906;28;20805;-58
2023/01/24 12:31:57;;;;;;;8.10;1.50;;;5.00;99.90;;;;;;5070438;28;20455;-59
2023/01/24 12:34:39;;;;;;;6.23;2.33;;;5.00;99.90;;;;;;5065168;28;20760;-59
2023/01/24 12:37:16;;;;;;;3.97;1.40;;;5.00;99.90;;;;;;5071931;28;20462;-59
2023/01/24 12:39:53;;;;;;;3.70;1.60;;;4.90;99.90;;;;;;5068856;28;20446;-59
2023/01/24 12:42:27;;;;;;;3.83;1.83;;;5.00;99.90;;;;;;5067580;28;20947;-58
2023/01/24 12:45:01;;;;;;;4.23;1.10;;;4.90;99.90;;;;;;5073329;28;20417;-58
2023/01/24 12:47:37;;;;;;;6.03;2.13;;;4.90;99.90;;;;;;5072928;28;20935;-58
2023/01/24 12:50:19;;;;;;;5.60;1.60;;;5.00;99.90;;;;;;5074788;28;20438;-59
2023/01/24 12:52:53;;;;;;;2.70;1.30;;;4.90;99.90;;;;;;5074472;28;20480;-58
2023/01/24 12:55:26;;;;;;;2.40;1.10;;;5.00;99.90;;;;;;5073966;28;20753;-59
2023/01/24 12:58:00;;;;;;;4.70;2.10;;;5.00;99.90;;;;;;5073310;28;20446;-59
2023/01/24 13:00:38;;;;;;;7.70;1.47;;;5.00;99.90;;;;;;5071246;28;20523;-60
2023/01/24 13:03:29;;;;;;;4.13;1.80;;;5.00;99.90;;;;;;5070242;28;20442;-58
2023/01/24 13:06:02;;;;;;;3.33;1.17;;;5.10;99.90;;;;;;5074273;28;20459;-59
2023/01/24 13:08:47;;;;;;;3.13;1.43;;;5.20;99.90;;;;;;5072168;28;20511;-59
2023/01/24 13:11:28;;;;;;;2.00;1.10;;;5.10;99.90;;;;;;5072049;28;20482;-59
2023/01/24 13:14:05;;;;;;;4.00;1.70;;;5.00;99.90;;;;;;5071731;28;20453;-59
2023/01/24 13:16:54;;;;;;;2.03;1.37;;;5.00;99.90;;;;;;5071358;28;20911;-60
2023/01/24 13:19:48;;;;;;;5.50;3.17;;;5.00;99.90;;;;;;5058898;28;20731;-59
2023/01/24 13:22:31;;;;;;;6.07;1.50;;;5.00;99.90;;;;;;5073410;28;20896;-59
2023/01/24 13:25:10;;;;;;;2.63;1.53;;;4.70;99.90;;;;;;5074355;28;20442;-60
2023/01/24 13:27:43;;;;;;;1.90;0.97;;;4.60;99.90;;;;;;5073881;28;21008;-60
2023/01/24 13:30:21;;;;;;;3.20;1.30;;;4.60;99.90;;;;;;5073423;28;20428;-60
2023/01/24 13:32:51;;;;;;;4.00;1.40;;;4.60;99.90;;;;;;5073458;28;20450;-60
2023/01/24 13:35:22;;;;;;;3.60;1.30;;;4.70;99.90;;;;;;5069839;28;20465;-60
2023/01/24 13:37:54;;;;;;;3.70;1.30;;;4.50;99.90;;;;;;5072917;28;20901;-60
2023/01/24 13:40:30;;;;;;;4.73;1.30;;;4.70;99.90;;;;;;5070568;28;20554;-60
2023/01/24 13:42:58;;;;;;;4.37;1.70;;;4.70;99.90;;;;;;5069434;28;20774;-60
2023/01/24 13:46:01;;;;;;;2.27;1.17;;;4.80;99.90;;;;;;5070927;28;20497;-60
2023/01/24 13:48:54;;;;;;;2.70;1.27;;;4.90;99.90;;;;;;5071933;28;20937;-62
2023/01/24 13:51:47;;;;;;;4.87;1.27;;;4.80;99.90;;;;;;5073849;28;20458;-61
2023/01/24 13:54:35;;;;;;;4.20;1.77;;;4.60;99.90;;;;;;5065841;28;20450;-61
2023/01/24 13:57:20;;;;;;;2.70;1.30;;;4.60;99.90;;;;;;5073180;28;20910;-62
2023/01/24 14:00:15;;;;;;;2.50;1.20;;;4.60;99.90;;;;;;5071510;28;20449;-60
2023/01/24 14:02:44;;;;;;;3.00;1.40;;;4.50;99.90;;;;;;5053001;28;20425;-60
2023/01/24 14:05:35;;;;;;;11.43;3.13;;;4.50;99.90;;;;;;5052562;28;20435;-60